Abbotsford, British Columbia

5:07 AM PDT on May 26, 2015 (GMT -0700)
Hwy 1 @ McCallum | | Change Station
CLOSE
Current Station
Personal Weather Station
Location: Abbotsford, BC
Elevation: 190 ft
Nearby Weather Stations

Elev 190 ft 49.03 °N, 122.30 °W | Updated 7 seconds ago

Overcast
Overcast
55.5 °F
Feels Like 55.5 °F
N
0.0
Wind Variable Wind from NNW
Gusts 0.0 mph

Today
High -- | Low -- °F
--% Chance of Precip.
Yesterday
High -- | Low -- °F
Precip. -- in
5:14 AM 8:59 PM
First Quarter, 57% visible
Pressure 30.04 in
Visibility 10.0 miles
Clouds Overcast 3300 ft
Dew Point 53 °F
Humidity 92%
Rainfall 0.00 in
Snow Depth Not available.
UV 0.0 out of 12
Pollen Not available.
Air Quality Not available.
Flu Activity Not available.
METAR KBLI 261153Z AUTO 00000KT 10SM OVC033 13/12 A3002 RMK AO2 SLP173 70004 T01330117 10139 20128 53002

More Conditions Fewer Conditions

Pressure 30.04 in
Visibility 10.0 miles
Clouds Overcast 3300 ft
Dew Point 53 °F
Humidity 92%
Rainfall 0.00 in
Snow Depth Not available.
UV 0.0 out of 12
Pollen Not available.
Air Quality Not available.
Flu Activity Not available.
METAR KBLI 261153Z AUTO 00000KT 10SM OVC033 13/12 A3002 RMK AO2 SLP173 70004 T01330117 10139 20128 53002

More Conditions Fewer Conditions

10-Day Weather Forecast

Almanac

Astronomy

May. 26, 2015 Rise Set
Actual Time
Civil Twilight
Nautical Twilight
Astronomical Twilight
Moon
Length of Visible Light
Length of Day
Tomorrow will be .
, % of the Moon is Illuminated

Today's Extremes

Country Highs Country Lows

Community

WunderPhotos

Upload Photos

1,824,318 photos uploaded!

WunderBlogs® & News

Nearby

Air Quality

  Air Quality AQ Index Pollutant
Not available.

Snow Depth

Station Depth Elevation

Earthquake Activity

City Distance Mag. Time & Date
Minimum magnitude displayed is 2.5.

Coastal Water Temperatures

Place Temperature

Stations

Nearby Weather Stations

Station Location Temp. Windchill Dew Point Humidity Wind Precip. Elev Updated Type